Check out our new BloomSky Weather System.

Active alerts

Houston, TX
  Details for Houston, TX River Flood Warning  +1 additional alert
Fort Bend, TX
  Details for Fort Bend, TX River Flood Warning  +2 additional alerts


Thunder radar  blitzortung!


Rain radar more information rain snow radar


Visit our other weather sites:

Template documentation
and downloads

And another site



Weather Underground History page Text

Daily Summary for February 24, 2017 Units:  English    Metric   Both
« Previous Day
Next Day »
Daily Weekly Monthly Yearly Custom
  High: Low: Average:
Temperature: TemperatureF °F 57.9 °F 69.7 °F
Dew Point: DewpointF °F 30.6 °F 55.7 °F
Humidity: Humidity % 16 % 67 %
Wind Speed: WindSpeedMPH mph 0.0 mph 3.6 mph
Wind Gust: WindSpeedGustMPH mph - -
Wind:- - WSW
Pressure: PressureIn in 29.64 in -
Precipitation: 0.00 in    
Historical Graphs
 
 
Tabular Data for February 24, 2017
Time Temperature Dew Point Pressure Wind Wind Speed Wind Gust Humidity Rainfall Rate (Hourly)
TemperatureF °F DewpointF °F PressureIn in Calm     Humidity % HourlyPrecipIn in
00:00 65.7 °F 63.5 °F 29.65 in SE 4.0 mph 9.0 mph 93 % 0.00 in
00:05 65.5 °F 63.3 °F 29.65 in SE 2.0 mph 9.0 mph 93 % 0.00 in
00:10 65.5 °F 63.7 °F 29.65 in SSE 2.0 mph 7.0 mph 94 % 0.00 in
00:15 65.3 °F 63.5 °F 29.65 in SE 4.0 mph 8.0 mph 94 % 0.00 in
00:20 65.1 °F 63.3 °F 29.65 in ESE 4.0 mph 8.0 mph 94 % 0.00 in
00:25 65.1 °F 63.3 °F 29.65 in East 6.0 mph 7.0 mph 94 % 0.00 in
00:30 65.1 °F 63.3 °F 29.65 in SSW 3.0 mph 7.0 mph 94 % 0.00 in
00:35 65.1 °F 63.3 °F 29.64 in SE 3.0 mph 7.0 mph 94 % 0.00 in
00:40 64.9 °F 63.1 °F 29.64 in South 1.0 mph 6.0 mph 94 % 0.00 in
00:45 64.9 °F 63.5 °F 29.64 in SE 1.0 mph 6.0 mph 95 % 0.00 in
00:50 64.8 °F 63.3 °F 29.64 in SE 1.0 mph 4.0 mph 95 % 0.00 in
00:55 64.8 °F 63.3 °F 29.65 in SSW 2.0 mph 4.0 mph 95 % 0.00 in
01:00 64.6 °F 63.1 °F 29.65 in South 3.0 mph 4.0 mph 95 % 0.00 in
01:05 64.6 °F 63.1 °F 29.65 in South 2.0 mph 4.0 mph 95 % 0.00 in
01:10 64.6 °F 63.1 °F 29.65 in SSE 1.0 mph 6.0 mph 95 % 0.00 in
01:15 64.6 °F 63.1 °F 29.65 in SSE 3.0 mph 6.0 mph 95 % 0.00 in
01:20 64.6 °F 63.5 °F 29.65 in ESE 2.0 mph 6.0 mph 96 % 0.00 in
01:25 64.6 °F 63.5 °F 29.65 in SSE 1.0 mph 4.0 mph 96 % 0.00 in
01:30 64.6 °F 63.5 °F 29.65 in South 3.0 mph 5.0 mph 96 % 0.00 in
01:35 64.6 °F 63.5 °F 29.65 in SSE 3.0 mph 5.0 mph 96 % 0.00 in
01:41 64.8 °F 63.7 °F 29.65 in South 3.0 mph 8.0 mph 96 % 0.00 in
01:46 64.6 °F 63.5 °F 29.65 in SSE 6.0 mph 8.0 mph 96 % 0.00 in
01:51 64.8 °F 63.7 °F 29.65 in SSE 1.0 mph 8.0 mph 96 % 0.00 in
01:56 64.8 °F 63.7 °F 29.66 in SW 4.0 mph 6.0 mph 96 % 0.00 in
02:01 64.8 °F 63.7 °F 29.66 in South 1.0 mph 6.0 mph 96 % 0.00 in
02:06 64.8 °F 63.7 °F 29.66 in SSE 6.0 mph 6.0 mph 96 % 0.00 in
02:11 64.9 °F 64.0 °F 29.66 in SSE 4.0 mph 6.0 mph 97 % 0.00 in
02:16 64.9 °F 64.0 °F 29.65 in WNW 2.0 mph 7.0 mph 97 % 0.00 in
02:21 65.1 °F 64.2 °F 29.65 in South 2.0 mph 7.0 mph 97 % 0.00 in
02:26 65.3 °F 64.0 °F 29.65 in ESE 3.0 mph 8.0 mph 96 % 0.00 in
02:31 65.5 °F 64.2 °F 29.65 in SE 5.0 mph 11.0 mph 96 % 0.00 in
02:36 65.5 °F 64.2 °F 29.65 in South 1.0 mph 11.0 mph 96 % 0.00 in
02:41 65.5 °F 64.2 °F 29.65 in ESE 4.0 mph 11.0 mph 96 % 0.00 in
02:46 65.5 °F 64.2 °F 29.65 in South 6.0 mph 9.0 mph 96 % 0.00 in
02:51 65.5 °F 64.2 °F 29.65 in ESE 3.0 mph 8.0 mph 96 % 0.00 in
02:56 65.5 °F 64.2 °F 29.65 in South 1.0 mph 8.0 mph 96 % 0.00 in
03:01 65.5 °F 64.2 °F 29.65 in SSW 2.0 mph 7.0 mph 96 % 0.00 in
03:06 65.5 °F 64.0 °F 29.65 in South 3.0 mph 7.0 mph 95 % 0.00 in
03:11 65.5 °F 64.2 °F 29.65 in SSE 3.0 mph 6.0 mph 96 % 0.00 in
03:16 65.3 °F 64.0 °F 29.65 in SSW 2.0 mph 6.0 mph 96 % 0.00 in
03:21 65.3 °F 64.0 °F 29.65 in South 3.0 mph 6.0 mph 96 % 0.00 in
03:26 65.3 °F 64.0 °F 29.65 in South 5.0 mph 6.0 mph 96 % 0.00 in
03:28 65.3 °F 64.0 °F 29.65 in South 2.0 mph 6.0 mph 96 % 0.00 in
03:33 65.5 °F 64.2 °F 29.65 in SSE 7.0 mph 7.0 mph 96 % 0.00 in
03:38 65.5 °F 64.2 °F 29.65 in SSE 3.0 mph 9.0 mph 96 % 0.00 in
03:43 65.5 °F 64.2 °F 29.65 in SSE 4.0 mph 10.0 mph 96 % 0.00 in
03:48 65.7 °F 64.2 °F 29.65 in SSW 2.0 mph 10.0 mph 95 % 0.00 in
03:53 65.5 °F 64.0 °F 29.65 in SE 3.0 mph 11.0 mph 95 % 0.00 in
03:58 65.5 °F 64.0 °F 29.65 in SSW 6.0 mph 11.0 mph 95 % 0.00 in
04:03 65.5 °F 64.0 °F 29.65 in SSE 4.0 mph 11.0 mph 95 % 0.00 in
04:08 65.5 °F 64.0 °F 29.65 in SE 3.0 mph 11.0 mph 95 % 0.00 in
04:13 65.5 °F 64.0 °F 29.65 in SSW 3.0 mph 11.0 mph 95 % 0.00 in
04:18 65.5 °F 64.0 °F 29.65 in South 4.0 mph 12.0 mph 95 % 0.00 in
04:23 65.5 °F 64.0 °F 29.65 in SSW 4.0 mph 12.0 mph 95 % 0.00 in
04:28 65.5 °F 64.0 °F 29.65 in South 3.0 mph 12.0 mph 95 % 0.00 in
04:33 65.5 °F 64.0 °F 29.65 in SE 3.0 mph 11.0 mph 95 % 0.00 in
04:38 65.5 °F 64.0 °F 29.66 in SSW 1.0 mph 11.0 mph 95 % 0.00 in
04:43 65.3 °F 63.9 °F 29.68 in West 2.0 mph 7.0 mph 95 % 0.00 in
04:48 65.5 °F 64.0 °F 29.70 in NNW 3.0 mph 7.0 mph 95 % 0.00 in
04:53 65.5 °F 64.0 °F 29.69 in WSW 2.0 mph 7.0 mph 95 % 0.00 in
04:58 65.5 °F 64.0 °F 29.69 in SW 1.0 mph 5.0 mph 95 % 0.00 in
05:04 65.7 °F 64.2 °F 29.70 in WSW 1.0 mph 5.0 mph 95 % 0.00 in
05:08 65.7 °F 64.2 °F 29.69 in South 2.0 mph 6.0 mph 95 % 0.00 in
05:14 65.7 °F 64.2 °F 29.70 in Calm   6.0 mph 95 % 0.00 in
05:19 65.7 °F 64.2 °F 29.70 in Calm   6.0 mph 95 % 0.00 in
05:24 65.7 °F 64.2 °F 29.70 in Calm   5.0 mph 95 % 0.00 in
05:29 65.7 °F 64.2 °F 29.70 in SW 1.0 mph 5.0 mph 95 % 0.00 in
05:34 65.7 °F 64.2 °F 29.70 in SW 1.0 mph 2.0 mph 95 % 0.00 in
05:39 65.7 °F 64.2 °F 29.70 in Calm   3.0 mph 95 % 0.00 in
05:44 65.5 °F 64.0 °F 29.70 in Calm   3.0 mph 95 % 0.00 in
05:49 65.5 °F 64.0 °F 29.70 in Calm   3.0 mph 95 % 0.00 in
05:54 65.5 °F 64.0 °F 29.71 in NW 1.0 mph 2.0 mph 95 % 0.00 in
05:59 65.5 °F 64.0 °F 29.71 in Calm   2.0 mph 95 % 0.00 in
06:04 65.5 °F 64.0 °F 29.70 in Calm   2.0 mph 95 % 0.00 in
06:09 65.3 °F 63.9 °F 29.71 in NW 1.0 mph 2.0 mph 95 % 0.00 in
06:14 65.1 °F 63.7 °F 29.70 in Calm   1.0 mph 95 % 0.00 in
06:19 64.9 °F 63.5 °F 29.70 in Calm   1.0 mph 95 % 0.00 in
06:24 64.8 °F 63.3 °F 29.71 in Calm   1.0 mph 95 % 0.00 in
06:29 64.6 °F 63.1 °F 29.70 in SW 1.0 mph 1.0 mph 95 % 0.00 in
06:34 64.0 °F 62.6 °F 29.70 in Calm   1.0 mph 95 % 0.00 in
06:39 64.2 °F 63.1 °F 29.71 in NW 1.0 mph 1.0 mph 96 % 0.00 in
06:44 64.2 °F 63.1 °F 29.71 in East 1.0 mph 2.0 mph 96 % 0.00 in
06:49 64.2 °F 63.1 °F 29.71 in NNW 1.0 mph 2.0 mph 96 % 0.00 in
06:54 64.0 °F 63.0 °F 29.71 in Calm   2.0 mph 96 % 0.00 in
07:00 63.9 °F 62.8 °F 29.71 in Calm   2.0 mph 96 % 0.00 in
07:04 63.7 °F 62.6 °F 29.71 in Calm   2.0 mph 96 % 0.00 in
07:10 63.7 °F 62.6 °F 29.72 in NE 1.0 mph 1.0 mph 96 % 0.00 in
07:15 63.7 °F 62.6 °F 29.72 in Calm   1.0 mph 96 % 0.00 in
07:20 63.5 °F 62.4 °F 29.72 in Calm   2.0 mph 96 % 0.00 in
07:25 63.7 °F 62.8 °F 29.73 in Calm   2.0 mph 97 % 0.00 in
07:30 63.9 °F 63.0 °F 29.73 in Calm   2.0 mph 97 % 0.00 in
07:35 63.9 °F 63.0 °F 29.73 in Calm   1.0 mph 97 % 0.00 in
07:40 64.2 °F 63.3 °F 29.73 in Calm   1.0 mph 97 % 0.00 in
07:45 64.6 °F 63.7 °F 29.73 in Calm   1.0 mph 97 % 0.00 in
07:50 64.9 °F 64.0 °F 29.73 in Calm   1.0 mph 97 % 0.00 in
07:55 65.1 °F 64.2 °F 29.73 in Calm   1.0 mph 97 % 0.00 in
08:00 65.5 °F 64.6 °F 29.73 in Calm   1.0 mph 97 % 0.00 in
08:05 65.8 °F 64.9 °F 29.73 in Calm   1.0 mph 97 % 0.00 in
08:10 66.2 °F 65.3 °F 29.73 in Calm   1.0 mph 97 % 0.00 in
08:15 66.7 °F 65.8 °F 29.73 in Calm   3.0 mph 97 % 0.00 in
08:20 67.3 °F 66.4 °F 29.73 in Calm   3.0 mph 97 % 0.00 in
08:25 67.3 °F 66.0 °F 29.73 in ESE 1.0 mph 4.0 mph 96 % 0.00 in
08:30 67.6 °F 66.2 °F 29.74 in East 4.0 mph 6.0 mph 95 % 0.00 in
08:35 67.6 °F 65.8 °F 29.73 in SE 7.0 mph 8.0 mph 94 % 0.00 in
08:40 68.0 °F 66.2 °F 29.74 in SE 6.0 mph 9.0 mph 94 % 0.00 in
08:45 68.5 °F 66.4 °F 29.74 in South 1.0 mph 9.0 mph 93 % 0.00 in
08:50 69.1 °F 66.9 °F 29.74 in SSE 5.0 mph 9.0 mph 93 % 0.00 in
08:55 69.6 °F 66.9 °F 29.74 in SSE 6.0 mph 8.0 mph 91 % 0.00 in
09:00 70.0 °F 67.3 °F 29.75 in South 8.0 mph 9.0 mph 91 % 0.00 in
09:05 70.2 °F 67.1 °F 29.75 in SSW 4.0 mph 11.0 mph 90 % 0.00 in
09:10 70.5 °F 67.1 °F 29.75 in ESE 4.0 mph 11.0 mph 89 % 0.00 in
09:15 70.9 °F 67.5 °F 29.75 in SE 5.0 mph 11.0 mph 89 % 0.00 in
09:21 71.2 °F 67.5 °F 29.75 in SSE 6.0 mph 9.0 mph 88 % 0.00 in
09:26 71.8 °F 68.0 °F 29.75 in ESE 5.0 mph 9.0 mph 88 % 0.00 in
09:31 72.1 °F 67.5 °F 29.76 in SE 2.0 mph 11.0 mph 85 % 0.00 in
09:36 72.7 °F 68.2 °F 29.76 in ESE 1.0 mph 11.0 mph 86 % 0.00 in
09:41 73.0 °F 68.0 °F 29.76 in South 3.0 mph 11.0 mph 84 % 0.00 in
09:46 73.2 °F 67.8 °F 29.76 in SE 5.0 mph 9.0 mph 83 % 0.00 in
09:51 73.6 °F 68.2 °F 29.76 in South 6.0 mph 9.0 mph 83 % 0.00 in
09:56 73.8 °F 68.0 °F 29.76 in South 3.0 mph 9.0 mph 82 % 0.00 in
10:01 73.8 °F 67.6 °F 29.76 in SSW 3.0 mph 9.0 mph 81 % 0.00 in
10:06 73.8 °F 68.0 °F 29.76 in SSE 5.0 mph 9.0 mph 82 % 0.00 in
10:11 73.6 °F 67.5 °F 29.76 in SW 3.0 mph 8.0 mph 81 % 0.00 in
10:16 73.2 °F 67.1 °F 29.76 in SSE 4.0 mph 8.0 mph 81 % 0.00 in
10:21 73.2 °F 67.1 °F 29.76 in SW 4.0 mph 9.0 mph 81 % 0.00 in
10:26 73.2 °F 67.1 °F 29.76 in SSW 3.0 mph 9.0 mph 81 % 0.00 in
10:29 73.4 °F 67.3 °F 29.76 in SSW 2.0 mph 9.0 mph 81 % 0.00 in
10:34 73.8 °F 67.3 °F 29.77 in WSW 1.0 mph 9.0 mph 80 % 0.00 in
10:39 73.9 °F 67.5 °F 29.77 in SSE 6.0 mph 7.0 mph 80 % 0.00 in
10:44 74.5 °F 67.1 °F 29.77 in SW 6.0 mph 10.0 mph 78 % 0.00 in
10:49 74.5 °F 66.7 °F 29.77 in ESE 2.0 mph 10.0 mph 77 % 0.00 in
10:54 74.8 °F 67.5 °F 29.77 in SSE 7.0 mph 10.0 mph 78 % 0.00 in
10:59 75.4 °F 67.6 °F 29.77 in SW 4.0 mph 12.0 mph 77 % 0.00 in
11:04 75.9 °F 66.6 °F 29.77 in SW 6.0 mph 12.0 mph 73 % 0.00 in
11:09 76.5 °F 67.1 °F 29.77 in South 5.0 mph 12.0 mph 73 % 0.00 in
11:14 76.5 °F 68.0 °F 29.77 in SSW 6.0 mph 9.0 mph 75 % 0.00 in
11:19 76.6 °F 67.3 °F 29.77 in SW 3.0 mph 9.0 mph 73 % 0.00 in
11:24 76.6 °F 66.9 °F 29.77 in SW 3.0 mph 9.0 mph 72 % 0.00 in
11:29 76.8 °F 67.8 °F 29.77 in SE 4.0 mph 8.0 mph 74 % 0.00 in
11:34 77.7 °F 68.4 °F 29.77 in SSW 3.0 mph 7.0 mph 73 % 0.00 in
11:39 78.3 °F 67.6 °F 29.77 in WSW 2.0 mph 9.0 mph 70 % 0.00 in
11:44 78.1 °F 67.1 °F 29.77 in South 6.0 mph 9.0 mph 69 % 0.00 in
11:49 77.7 °F 66.7 °F 29.77 in West 2.0 mph 11.0 mph 69 % 0.00 in
11:54 77.7 °F 66.7 °F 29.77 in WSW 4.0 mph 11.0 mph 69 % 0.00 in
11:59 78.4 °F 67.5 °F 29.77 in SW 2.0 mph 11.0 mph 69 % 0.00 in
12:04 79.2 °F 67.6 °F 29.77 in WSW 2.0 mph 7.0 mph 68 % 0.00 in
12:09 79.0 °F 65.8 °F 29.77 in West 3.0 mph 6.0 mph 64 % 0.00 in
12:14 79.3 °F 65.7 °F 29.77 in NNW 2.0 mph 8.0 mph 63 % 0.00 in
12:19 80.1 °F 66.4 °F 29.77 in WSW 2.0 mph 8.0 mph 63 % 0.00 in
12:24 79.5 °F 66.7 °F 29.76 in West 3.0 mph 8.0 mph 65 % 0.00 in
12:30 79.9 °F 68.0 °F 29.76 in SW 5.0 mph 5.0 mph 67 % 0.00 in
12:35 80.1 °F 65.8 °F 29.76 in SW 4.0 mph 6.0 mph 62 % 0.00 in
12:40 80.1 °F 65.8 °F 29.76 in WNW 3.0 mph 9.0 mph 62 % 0.00 in
12:45 80.4 °F 66.2 °F 29.76 in WNW 3.0 mph 9.0 mph 62 % 0.00 in
12:50 80.2 °F 66.6 °F 29.76 in SW 2.0 mph 9.0 mph 63 % 0.00 in
12:55 80.6 °F 66.4 °F 29.76 in SW 1.0 mph 7.0 mph 62 % 0.00 in
13:00 80.8 °F 66.6 °F 29.75 in West 3.0 mph 7.0 mph 62 % 0.00 in
13:05 80.6 °F 65.8 °F 29.75 in SSW 2.0 mph 7.0 mph 61 % 0.00 in
13:10 81.0 °F 66.2 °F 29.75 in WNW 3.0 mph 6.0 mph 61 % 0.00 in
13:15 80.8 °F 64.6 °F 29.75 in SSW 2.0 mph 8.0 mph 58 % 0.00 in
13:20 80.8 °F 64.6 °F 29.75 in Calm   8.0 mph 58 % 0.00 in
13:25 81.1 °F 64.9 °F 29.75 in NW 2.0 mph 8.0 mph 58 % 0.00 in
13:30 81.7 °F 66.0 °F 29.74 in SW 3.0 mph 7.0 mph 59 % 0.00 in
13:35 81.9 °F 64.6 °F 29.74 in WSW 4.0 mph 7.0 mph 56 % 0.00 in
13:40 81.7 °F 64.4 °F 29.74 in WSW 2.0 mph 8.0 mph 56 % 0.00 in
13:45 81.7 °F 64.4 °F 29.74 in North 3.0 mph 8.0 mph 56 % 0.00 in
13:50 81.1 °F 61.9 °F 29.75 in West 2.0 mph 11.0 mph 52 % 0.00 in
13:55 80.8 °F 61.5 °F 29.74 in West 2.0 mph 11.0 mph 52 % 0.00 in
14:00 81.7 °F 60.6 °F 29.74 in WNW 7.0 mph 11.0 mph 49 % 0.00 in
14:05 81.9 °F 60.8 °F 29.74 in NNE 1.0 mph 15.0 mph 49 % 0.00 in
14:10 82.0 °F 57.9 °F 29.74 in WNW 4.0 mph 15.0 mph 44 % 0.00 in
14:15 82.0 °F 55.9 °F 29.74 in SW 1.0 mph 15.0 mph 41 % 0.00 in
14:20 82.4 °F 57.0 °F 29.73 in NNW 4.0 mph 13.0 mph 42 % 0.00 in
14:25 82.4 °F 55.6 °F 29.74 in NNW 4.0 mph 14.0 mph 40 % 0.00 in
14:30 82.8 °F 53.1 °F 29.73 in NW 1.0 mph 14.0 mph 36 % 0.00 in
14:35 82.8 °F 53.8 °F 29.74 in NW 5.0 mph 14.0 mph 37 % 0.00 in
14:40 82.8 °F 53.1 °F 29.73 in NW 11.0 mph 13.0 mph 36 % 0.00 in
14:46 82.8 °F 52.3 °F 29.74 in NNW 2.0 mph 13.0 mph 35 % 0.00 in
14:51 82.6 °F 51.4 °F 29.74 in NW 5.0 mph 13.0 mph 34 % 0.00 in
14:56 82.6 °F 48.9 °F 29.74 in NNW 7.0 mph 13.0 mph 31 % 0.00 in
15:01 82.2 °F 49.5 °F 29.74 in NW 7.0 mph 15.0 mph 32 % 0.00 in
15:06 82.2 °F 47.7 °F 29.73 in NW 6.0 mph 15.0 mph 30 % 0.00 in
15:11 82.6 °F 42.1 °F 29.74 in NNW 7.0 mph 16.0 mph 24 % 0.00 in
15:16 82.2 °F 34.5 °F 29.74 in NW 3.0 mph 16.0 mph 18 % 0.00 in
15:21 82.0 °F 35.8 °F 29.73 in WNW 6.0 mph 16.0 mph 19 % 0.00 in
15:26 82.0 °F 34.3 °F 29.74 in NW 8.0 mph 16.0 mph 18 % 0.00 in
15:31 82.0 °F 32.9 °F 29.74 in NW 4.0 mph 14.0 mph 17 % 0.00 in
15:36 82.0 °F 32.9 °F 29.74 in NW 4.0 mph 14.0 mph 17 % 0.00 in
15:41 82.0 °F 34.3 °F 29.74 in NW 4.0 mph 11.0 mph 18 % 0.00 in
15:46 82.0 °F 31.5 °F 29.74 in North 6.0 mph 14.0 mph 16 % 0.00 in
15:51 81.9 °F 34.2 °F 29.74 in NW 3.0 mph 14.0 mph 18 % 0.00 in
15:56 81.7 °F 35.4 °F 29.74 in WNW 2.0 mph 14.0 mph 19 % 0.00 in
16:01 81.7 °F 34.0 °F 29.75 in WNW 6.0 mph 13.0 mph 18 % 0.00 in
16:06 81.1 °F 32.2 °F 29.75 in WNW 4.0 mph 14.0 mph 17 % 0.00 in
16:11 81.1 °F 33.6 °F 29.75 in West 3.0 mph 14.0 mph 18 % 0.00 in
16:16 81.1 °F 33.6 °F 29.75 in WNW 4.0 mph 14.0 mph 18 % 0.00 in
16:21 81.1 °F 33.6 °F 29.75 in NW 6.0 mph 11.0 mph 18 % 0.00 in
16:26 81.0 °F 30.6 °F 29.75 in WSW 3.0 mph 9.0 mph 16 % 0.00 in
16:31 80.6 °F 31.8 °F 29.75 in NW 9.0 mph 12.0 mph 17 % 0.00 in
16:32 80.6 °F 31.8 °F 29.75 in NW 10.0 mph 12.0 mph 17 % 0.00 in
16:37 80.2 °F 31.5 °F 29.75 in NW 8.0 mph 13.0 mph 17 % 0.00 in
16:42 80.2 °F 35.6 °F 29.76 in NW 2.0 mph 13.0 mph 20 % 0.00 in
16:47 80.1 °F 35.4 °F 29.76 in NE 5.0 mph 13.0 mph 20 % 0.00 in
16:52 79.7 °F 33.8 °F 29.77 in West 13.0 mph 13.0 mph 19 % 0.00 in
16:57 79.3 °F 34.7 °F 29.77 in NNW 8.0 mph 13.0 mph 20 % 0.00 in
17:02 78.8 °F 34.3 °F 29.77 in NW 7.0 mph 13.0 mph 20 % 0.00 in
17:07 78.6 °F 36.7 °F 29.77 in NW 8.0 mph 14.0 mph 22 % 0.00 in
17:12 78.3 °F 38.5 °F 29.78 in WSW 4.0 mph 14.0 mph 24 % 0.00 in
17:13 78.1 °F 38.3 °F 29.78 in NW 4.0 mph 14.0 mph 24 % 0.00 in
17:18 77.7 °F 39.0 °F 29.78 in WNW 3.0 mph 14.0 mph 25 % 0.00 in
17:23 77.4 °F 38.8 °F 29.78 in WNW 2.0 mph 13.0 mph 25 % 0.00 in
17:28 77.2 °F 40.6 °F 29.78 in NW 6.0 mph 11.0 mph 27 % 0.00 in
17:33 76.6 °F 41.2 °F 29.78 in NW 9.0 mph 9.0 mph 28 % 0.00 in
17:38 75.7 °F 41.2 °F 29.79 in NNW 7.0 mph 11.0 mph 29 % 0.00 in
17:43 75.0 °F 41.5 °F 29.79 in WNW 8.0 mph 12.0 mph 30 % 0.00 in
17:48 74.7 °F 42.1 °F 29.80 in NW 6.0 mph 14.0 mph 31 % 0.00 in
17:53 74.1 °F 42.4 °F 29.80 in NW 3.0 mph 14.0 mph 32 % 0.00 in
17:58 73.8 °F 43.7 °F 29.80 in WNW 10.0 mph 14.0 mph 34 % 0.00 in
18:03 73.0 °F 43.0 °F 29.80 in NNE 6.0 mph 14.0 mph 34 % 0.00 in
18:08 72.7 °F 42.6 °F 29.81 in WNW 2.0 mph 14.0 mph 34 % 0.00 in
18:13 72.3 °F 43.2 °F 29.81 in WNW 6.0 mph 12.0 mph 35 % 0.00 in
18:18 72.0 °F 43.5 °F 29.81 in NW 3.0 mph 12.0 mph 36 % 0.00 in
18:23 71.4 °F 43.7 °F 29.81 in NW 4.0 mph 12.0 mph 37 % 0.00 in
18:28 71.1 °F 44.2 °F 29.81 in NNW 2.0 mph 12.0 mph 38 % 0.00 in
18:33 70.5 °F 44.4 °F 29.82 in WNW 3.0 mph 11.0 mph 39 % 0.00 in
18:38 70.2 °F 45.3 °F 29.83 in NW 3.0 mph 11.0 mph 41 % 0.00 in
18:43 69.8 °F 45.7 °F 29.83 in WSW 2.0 mph 10.0 mph 42 % 0.00 in
18:48 69.4 °F 46.0 °F 29.83 in NW 3.0 mph 10.0 mph 43 % 0.00 in
18:53 69.3 °F 46.4 °F 29.83 in WNW 1.0 mph 10.0 mph 44 % 0.00 in
18:59 68.7 °F 46.6 °F 29.83 in NW 3.0 mph 10.0 mph 45 % 0.00 in
19:04 68.5 °F 46.9 °F 29.84 in NNW 3.0 mph 11.0 mph 46 % 0.00 in
19:09 68.2 °F 47.1 °F 29.84 in NW 5.0 mph 11.0 mph 47 % 0.00 in
19:14 67.8 °F 46.9 °F 29.85 in NW 6.0 mph 11.0 mph 47 % 0.00 in
19:20 67.6 °F 46.8 °F 29.85 in NW 3.0 mph 11.0 mph 47 % 0.00 in
19:25 67.5 °F 46.6 °F 29.85 in NNW 5.0 mph 11.0 mph 47 % 0.00 in
19:30 67.1 °F 46.8 °F 29.85 in NW 7.0 mph 11.0 mph 48 % 0.00 in
19:35 66.7 °F 46.4 °F 29.86 in NW 4.0 mph 11.0 mph 48 % 0.00 in
19:40 66.6 °F 46.8 °F 29.86 in NW 3.0 mph 11.0 mph 49 % 0.00 in
19:45 66.2 °F 46.9 °F 29.87 in NNW 2.0 mph 11.0 mph 50 % 0.00 in
19:50 65.8 °F 47.1 °F 29.87 in NNW 3.0 mph 9.0 mph 51 % 0.00 in
19:55 65.5 °F 47.5 °F 29.87 in NW 5.0 mph 7.0 mph 52 % 0.00 in
20:00 65.3 °F 47.3 °F 29.88 in NNW 2.0 mph 8.0 mph 52 % 0.00 in
20:01 65.1 °F 47.1 °F 29.88 in North 8.0 mph 8.0 mph 52 % 0.00 in
20:06 64.9 °F 46.9 °F 29.88 in NW 4.0 mph 10.0 mph 52 % 0.00 in
20:11 64.8 °F 47.3 °F 29.88 in NW 4.0 mph 10.0 mph 53 % 0.00 in
20:16 64.6 °F 47.1 °F 29.89 in North 2.0 mph 10.0 mph 53 % 0.00 in
20:21 64.2 °F 47.3 °F 29.89 in NW 4.0 mph 8.0 mph 54 % 0.00 in
20:26 64.2 °F 47.3 °F 29.89 in NW 6.0 mph 10.0 mph 54 % 0.00 in
20:31 64.0 °F 47.1 °F 29.90 in NNW 2.0 mph 11.0 mph 54 % 0.00 in
20:36 63.9 °F 47.3 °F 29.90 in NNW 8.0 mph 11.0 mph 55 % 0.00 in
20:41 63.7 °F 47.3 °F 29.91 in NNW 4.0 mph 11.0 mph 55 % 0.00 in
20:46 63.5 °F 47.1 °F 29.91 in NNW 9.0 mph 12.0 mph 55 % 0.00 in
20:51 63.3 °F 46.9 °F 29.91 in West 7.0 mph 13.0 mph 55 % 0.00 in
20:56 63.1 °F 46.8 °F 29.91 in NW 5.0 mph 13.0 mph 55 % 0.00 in
21:01 63.0 °F 46.6 °F 29.91 in North 7.0 mph 13.0 mph 55 % 0.00 in
21:06 62.8 °F 46.9 °F 29.91 in WNW 6.0 mph 10.0 mph 56 % 0.00 in
21:11 62.8 °F 46.9 °F 29.92 in NNW 3.0 mph 10.0 mph 56 % 0.00 in
21:16 62.4 °F 46.6 °F 29.92 in North 5.0 mph 11.0 mph 56 % 0.00 in
21:21 62.4 °F 46.9 °F 29.92 in NNW 3.0 mph 13.0 mph 57 % 0.00 in
21:26 62.2 °F 46.8 °F 29.93 in NW 6.0 mph 13.0 mph 57 % 0.00 in
21:31 62.1 °F 46.6 °F 29.93 in NW 6.0 mph 13.0 mph 57 % 0.00 in
21:36 62.1 °F 46.6 °F 29.93 in NNW 5.0 mph 12.0 mph 57 % 0.00 in
21:41 61.7 °F 46.4 °F 29.93 in WNW 6.0 mph 12.0 mph 57 % 0.00 in
21:46 61.5 °F 46.2 °F 29.94 in NW 5.0 mph 14.0 mph 57 % 0.00 in
21:52 61.5 °F 45.7 °F 29.94 in NW 7.0 mph 14.0 mph 56 % 0.00 in
21:57 61.5 °F 46.2 °F 29.94 in NNW 6.0 mph 14.0 mph 57 % 0.00 in
22:02 61.3 °F 45.5 °F 29.94 in NNE 6.0 mph 12.0 mph 56 % 0.00 in
22:07 61.2 °F 45.3 °F 29.94 in NNW 6.0 mph 9.0 mph 56 % 0.00 in
22:12 61.2 °F 45.3 °F 29.94 in WNW 12.0 mph 12.0 mph 56 % 0.00 in
22:17 61.2 °F 44.8 °F 29.94 in North 6.0 mph 14.0 mph 55 % 0.00 in
22:22 61.0 °F 44.8 °F 29.94 in NNW 7.0 mph 14.0 mph 55 % 0.00 in
22:27 61.0 °F 44.8 °F 29.94 in NW 6.0 mph 14.0 mph 55 % 0.00 in
22:32 60.6 °F 44.4 °F 29.94 in WNW 6.0 mph 13.0 mph 55 % 0.00 in
22:37 60.6 °F 43.9 °F 29.94 in NW 3.0 mph 13.0 mph 54 % 0.00 in
22:42 60.6 °F 43.9 °F 29.94 in North 5.0 mph 13.0 mph 54 % 0.00 in
22:47 60.3 °F 43.5 °F 29.94 in NW 6.0 mph 13.0 mph 54 % 0.00 in
22:52 60.1 °F 43.3 °F 29.94 in NNE 3.0 mph 13.0 mph 54 % 0.00 in
22:57 59.7 °F 43.0 °F 29.94 in WNW 7.0 mph 14.0 mph 54 % 0.00 in
23:02 59.5 °F 42.4 °F 29.94 in NW 6.0 mph 14.0 mph 53 % 0.00 in
23:07 59.5 °F 42.8 °F 29.94 in NNW 5.0 mph 14.0 mph 54 % 0.00 in
23:12 59.4 °F 42.3 °F 29.94 in NNE 6.0 mph 11.0 mph 53 % 0.00 in
23:17 59.2 °F 42.1 °F 29.95 in NNW 4.0 mph 11.0 mph 53 % 0.00 in
23:22 59.2 °F 42.1 °F 29.95 in NW 3.0 mph 11.0 mph 53 % 0.00 in
23:27 58.8 °F 41.2 °F 29.95 in NNW 6.0 mph 11.0 mph 52 % 0.00 in
23:32 58.8 °F 41.2 °F 29.96 in North 7.0 mph 11.0 mph 52 % 0.00 in
23:37 58.6 °F 41.5 °F 29.96 in NW 2.0 mph 10.0 mph 53 % 0.00 in
23:42 58.5 °F 40.8 °F 29.96 in North 2.0 mph 10.0 mph 52 % 0.00 in
23:47 58.3 °F 41.2 °F 29.96 in NNW 4.0 mph 10.0 mph 53 % 0.00 in
23:52 58.1 °F 40.6 °F 29.96 in NW 2.0 mph 12.0 mph 52 % 0.00 in
23:57 57.9 °F 40.8 °F 29.96 in NW 1.0 mph 12.0 mph 53 % 0.00 in
Spring, Texas: Villages of Bridgestone
Compliments of Weather Underground - 3 mb

Script developed by  Jim McMurry - jmcmurry@mwt.net Adapted for the template by  Wim van der Kuil - Leuven-Template.eu

You find our weather info also at:

UK Metoffice

WeatherCloud

Weather Underground

Mid-South Weather Network

AWEKAS

Citizen Weather Observer Program (CWOP)

HAMweather, WeatherForYou, PWS Weather

Equipment we use:

Weather-station
Davis Vantage Vue

Weather-program
Meteohub

Weather-server
Debian 7.9 x86 (Guest)

Provider
DreamHost

Davis Vantage Vue

Meteohub

Debian 7.9 x86 (Guest)

DreamHost